Time;durP1;ratioP1;P1;durP2;ratioP2;P2;SDS_P1;SDS_P2;PMS_P1;PMS_P2;Temp;Humidity;BMP_temperature;BMP_pressure;BME280_temperature;BME280_humidity;BME280_pressure;Samples;Min_cycle;Max_cycle;Signal;HPM_P1;HPM_P2
2023/05/29 00:02:15;;;;;;;;;;;9.30;99.90;;;;;;6124670;23;19984;-72
2023/05/29 00:04:40;;;;;;;;;;;9.30;99.90;;;;;;6125535;23;19921;-71
2023/05/29 00:07:06;;;;;;;;;;;9.30;99.90;;;;;;6123024;23;20239;-72
2023/05/29 00:09:31;;;;;;;;;;;9.30;99.90;;;;;;6125813;23;19928;-71
2023/05/29 00:11:57;;;;;;;;;;;9.20;99.90;;;;;;6127444;23;19924;-72
2023/05/29 00:14:23;;;;;;;;;;;9.20;99.90;;;;;;6125541;23;19917;-71
2023/05/29 00:16:50;;;;;;;;;;;9.20;99.90;;;;;;6124821;23;19956;-72
2023/05/29 00:19:19;;;;;;;;;;;9.60;99.90;;;;;;6127618;23;19921;-71
2023/05/29 00:21:47;;;;;;;;;;;9.40;99.90;;;;;;6125712;23;19921;-72
2023/05/29 00:24:14;;;;;;;;;;;9.20;99.90;;;;;;6126417;23;19927;-71
2023/05/29 00:26:39;;;;;;;;;;;9.10;99.90;;;;;;6150499;23;20369;-71
2023/05/29 00:29:05;;;;;;;;;;;9.10;99.90;;;;;;6124873;23;19963;-72
2023/05/29 00:31:31;;;;;;;;;;;9.10;99.90;;;;;;6124822;23;20348;-72
2023/05/29 00:33:56;;;;;;;;;;;9.10;99.90;;;;;;6126946;23;19921;-72
2023/05/29 00:36:23;;;;;;;;;;;9.10;99.90;;;;;;6124489;23;20389;-72
2023/05/29 00:38:49;;;;;;;;;;;9.10;99.90;;;;;;6125298;23;20338;-71
2023/05/29 00:41:17;;;;;;;;;;;9.10;99.90;;;;;;6127577;23;19921;-71
2023/05/29 00:43:43;;;;;;;;;;;9.10;99.90;;;;;;6124764;23;19959;-72
2023/05/29 00:46:09;;;;;;;;;;;9.10;99.90;;;;;;6125125;23;20374;-72
2023/05/29 00:48:35;;;;;;;;;;;9.10;99.90;;;;;;6126710;23;20357;-71
2023/05/29 00:51:00;;;;;;;;;;;9.00;99.90;;;;;;6123659;23;19922;-71
2023/05/29 00:53:26;;;;;;;;;;;9.00;99.90;;;;;;6127378;23;19921;-72
2023/05/29 00:55:55;;;;;;;;;;;9.70;99.90;;;;;;6124754;23;19920;-72
2023/05/29 00:58:21;;;;;;;;;;;9.00;99.90;;;;;;6123992;23;20414;-71
2023/05/29 01:00:46;;;;;;;;;;;9.00;99.90;;;;;;6149855;23;19921;-72
2023/05/29 01:03:14;;;;;;;;;;;9.20;99.90;;;;;;6124698;23;20377;-72
2023/05/29 01:05:40;;;;;;;;;;;9.10;99.90;;;;;;6124041;23;20385;-73
2023/05/29 01:08:06;;;;;;;;;;;9.10;99.90;;;;;;6149686;23;19921;-72
2023/05/29 01:10:32;;;;;;;;;;;9.10;99.90;;;;;;6126987;23;19921;-72
2023/05/29 01:13:10;;;;;;;;;;;9.10;99.90;;;;;;6126023;23;19921;-72
2023/05/29 01:15:36;;;;;;;;;;;9.10;99.90;;;;;;6126745;23;19968;-71
2023/05/29 01:18:18;;;;;;;;;;;9.10;99.90;;;;;;6125047;23;19920;-72
2023/05/29 01:20:56;;;;;;;;;;;9.20;99.90;;;;;;6124385;23;19921;-72
2023/05/29 01:23:25;;;;;;;;;;;9.20;99.90;;;;;;6125223;23;19931;-71
2023/05/29 01:26:00;;;;;;;;;;;9.30;99.90;;;;;;6125404;23;19925;-72
2023/05/29 01:28:30;;;;;;;;;;;9.40;99.90;;;;;;6124645;23;19924;-72
2023/05/29 01:30:56;;;;;;;;;;;9.40;99.90;;;;;;6126351;23;19921;-72
2023/05/29 01:33:24;;;;;;;;;;;9.40;99.90;;;;;;6124196;23;19921;-72
2023/05/29 01:35:50;;;;;;;;;;;9.40;99.90;;;;;;6124790;23;19921;-72
2023/05/29 01:38:15;;;;;;;;;;;9.40;99.90;;;;;;6124881;23;20389;-72
2023/05/29 01:40:41;;;;;;;;;;;9.40;99.90;;;;;;6124061;23;20000;-71
2023/05/29 01:43:07;;;;;;;;;;;9.50;99.90;;;;;;6124480;23;20319;-72
2023/05/29 01:45:33;;;;;;;;;;;9.50;99.90;;;;;;6126775;23;19921;-72
2023/05/29 01:47:58;;;;;;;;;;;9.60;99.90;;;;;;6125600;23;19976;-72
2023/05/29 01:50:24;;;;;;;;;;;9.70;99.90;;;;;;6126471;23;19928;-72
2023/05/29 01:52:50;;;;;;;;;;;9.70;99.90;;;;;;6126585;23;19931;-72
2023/05/29 01:55:15;;;;;;;;;;;9.70;99.90;;;;;;6125553;23;19953;-72
2023/05/29 01:57:41;;;;;;;;;;;9.70;99.90;;;;;;6124777;23;19921;-72
2023/05/29 02:00:08;;;;;;;;;;;9.80;99.90;;;;;;6126064;23;20732;-72
2023/05/29 02:02:38;;;;;;;;;;;9.80;99.90;;;;;;6124023;23;19992;-72
2023/05/29 02:05:05;;;;;;;;;;;9.80;99.90;;;;;;6125823;23;19928;-72
2023/05/29 02:07:31;;;;;;;;;;;9.80;99.90;;;;;;6149428;23;20238;-72
2023/05/29 02:09:56;;;;;;;;;;;10.20;99.90;;;;;;6123215;23;19974;-72
2023/05/29 02:12:22;;;;;;;;;;;10.00;99.90;;;;;;6126642;23;19928;-72
2023/05/29 02:14:48;;;;;;;;;;;10.40;99.90;;;;;;6125488;23;20337;-71
2023/05/29 02:17:14;;;;;;;;;;;10.00;99.90;;;;;;6126224;23;19921;-72
2023/05/29 02:19:40;;;;;;;;;;;9.90;99.90;;;;;;6124761;23;19925;-71
2023/05/29 02:22:06;;;;;;;;;;;10.40;99.90;;;;;;6125176;23;20768;-72
2023/05/29 02:24:32;;;;;;;;;;;9.90;99.90;;;;;;6126329;23;19959;-72
2023/05/29 02:26:57;;;;;;;;;;;9.90;99.90;;;;;;6124497;23;20242;-72
2023/05/29 02:29:23;;;;;;;;;;;9.80;99.90;;;;;;6123560;23;20334;-72
2023/05/29 02:31:48;;;;;;;;;;;10.20;99.90;;;;;;6126001;23;19925;-71
2023/05/29 02:34:14;;;;;;;;;;;9.70;99.90;;;;;;6124074;23;19921;-71
2023/05/29 02:36:40;;;;;;;;;;;9.60;99.90;;;;;;6123819;23;19925;-71
2023/05/29 02:39:06;;;;;;;;;;;9.60;99.90;;;;;;6124281;23;19948;-72
2023/05/29 02:41:31;;;;;;;;;;;9.50;99.90;;;;;;6124631;23;19928;-72
2023/05/29 02:43:57;;;;;;;;;;;9.50;99.90;;;;;;6123463;23;19971;-72
2023/05/29 02:46:22;;;;;;;;;;;9.60;99.90;;;;;;6124429;23;20000;-72
2023/05/29 02:48:48;;;;;;;;;;;9.60;99.90;;;;;;6124369;23;19921;-72
2023/05/29 02:51:14;;;;;;;;;;;9.70;99.90;;;;;;6148303;23;20007;-72
2023/05/29 02:53:39;;;;;;;;;;;9.70;99.90;;;;;;6124500;23;19928;-71
2023/05/29 02:56:06;;;;;;;;;;;9.80;99.90;;;;;;6124055;23;19924;-72
2023/05/29 02:58:32;;;;;;;;;;;9.80;99.90;;;;;;6125767;23;19968;-72
2023/05/29 03:00:58;;;;;;;;;;;9.90;99.90;;;;;;6124179;23;20286;-72
2023/05/29 03:03:23;;;;;;;;;;;9.90;99.90;;;;;;6125984;23;19921;-72
2023/05/29 03:05:52;;;;;;;;;;;10.00;99.90;;;;;;6124795;23;19977;-72
2023/05/29 03:08:17;;;;;;;;;;;10.00;99.90;;;;;;6125746;23;19928;-70
2023/05/29 03:10:44;;;;;;;;;;;10.10;99.90;;;;;;6124257;23;19920;-71
2023/05/29 03:13:09;;;;;;;;;;;10.10;99.90;;;;;;6123366;23;19921;-71
2023/05/29 03:15:35;;;;;;;;;;;10.10;99.90;;;;;;6124450;23;20253;-71
2023/05/29 03:18:01;;;;;;;;;;;10.30;99.90;;;;;;6123473;23;19921;-71
2023/05/29 03:20:27;;;;;;;;;;;10.20;99.90;;;;;;6125658;23;20246;-71
2023/05/29 03:22:53;;;;;;;;;;;10.20;99.90;;;;;;6124091;23;19925;-70
2023/05/29 03:25:19;;;;;;;;;;;10.20;99.90;;;;;;6124934;23;19928;-71
2023/05/29 03:27:45;;;;;;;;;;;10.30;99.90;;;;;;6125898;23;19921;-71
2023/05/29 03:30:11;;;;;;;;;;;10.30;99.90;;;;;;6101100;23;20059;-71
2023/05/29 03:32:37;;;;;;;;;;;10.30;99.90;;;;;;6101180;23;20330;-71
2023/05/29 03:35:03;;;;;;;;;;;10.40;99.90;;;;;;6101299;23;19924;-71
2023/05/29 03:37:29;;;;;;;;;;;10.40;99.90;;;;;;6127859;23;19932;-70
2023/05/29 03:39:54;;;;;;;;;;;10.40;99.90;;;;;;6127464;23;19920;-71
2023/05/29 03:42:20;;;;;;;;;;;11.00;99.90;;;;;;6105816;23;20382;-71
2023/05/29 03:44:45;;;;;;;;;;;10.60;99.90;;;;;;6107210;23;19921;-71
2023/05/29 03:47:11;;;;;;;;;;;10.30;99.90;;;;;;6131464;23;19920;-71
2023/05/29 03:49:37;;;;;;;;;;;10.30;99.90;;;;;;6105854;23;19928;-72
2023/05/29 03:52:02;;;;;;;;;;;10.30;99.90;;;;;;6101021;23;19932;-71
2023/05/29 03:54:28;;;;;;;;;;;10.30;99.90;;;;;;6098610;23;20349;-72
2023/05/29 03:56:53;;;;;;;;;;;10.30;99.90;;;;;;6127055;23;19996;-71
2023/05/29 03:59:19;;;;;;;;;;;10.30;99.90;;;;;;6127835;23;19999;-71
2023/05/29 04:01:44;;;;;;;;;;;10.40;99.90;;;;;;6076523;23;19945;-71
2023/05/29 04:04:10;;;;;;;;;;;10.50;99.90;;;;;;6101263;23;19925;-70
2023/05/29 04:06:38;;;;;;;;;;;10.40;99.90;;;;;;6127643;23;19921;-71
2023/05/29 04:09:09;;;;;;;;;;;10.50;99.90;;;;;;6100239;23;19924;-71
2023/05/29 04:11:34;;;;;;;;;;;10.50;99.90;;;;;;6101304;23;19927;-71
2023/05/29 04:14:02;;;;;;;;;;;10.50;99.90;;;;;;6127523;23;20261;-71
2023/05/29 04:16:28;;;;;;;;;;;10.40;99.90;;;;;;6126145;23;20356;-71
2023/05/29 04:18:54;;;;;;;;;;;10.50;99.90;;;;;;6101053;23;19921;-71
2023/05/29 04:21:20;;;;;;;;;;;10.50;99.90;;;;;;6126795;23;19927;-72
2023/05/29 04:23:48;;;;;;;;;;;10.50;99.90;;;;;;6100916;23;20004;-71
2023/05/29 04:26:14;;;;;;;;;;;10.50;99.90;;;;;;6101174;23;19921;-71
2023/05/29 04:28:40;;;;;;;;;;;10.50;99.90;;;;;;6115675;23;20132;-70
2023/05/29 04:31:05;;;;;;;;;;;10.60;99.90;;;;;;6125322;23;19921;-71
2023/05/29 04:33:32;;;;;;;;;;;10.60;99.90;;;;;;6125483;23;19921;-71
2023/05/29 04:36:00;;;;;;;;;;;10.60;99.90;;;;;;6125300;23;19944;-71
2023/05/29 04:38:26;;;;;;;;;;;10.60;99.90;;;;;;6125263;23;19921;-71
2023/05/29 04:40:52;;;;;;;;;;;10.70;99.90;;;;;;6126716;23;19971;-71
2023/05/29 04:43:18;;;;;;;;;;;10.70;99.90;;;;;;6126450;23;19943;-71
2023/05/29 04:45:44;;;;;;;;;;;10.80;99.90;;;;;;6125677;23;19983;-71
2023/05/29 04:48:09;;;;;;;;;;;10.80;99.90;;;;;;6126875;23;19928;-70
2023/05/29 04:50:36;;;;;;;;;;;10.90;99.90;;;;;;6125871;23;19928;-71
2023/05/29 04:53:02;;;;;;;;;;;11.00;99.90;;;;;;6125270;23;19996;-72
2023/05/29 04:55:27;;;;;;;;;;;11.10;99.90;;;;;;6125798;23;20295;-71
2023/05/29 04:57:53;;;;;;;;;;;11.10;99.90;;;;;;6124094;23;19927;-71
2023/05/29 05:00:19;;;;;;;;;;;11.20;99.90;;;;;;6127363;23;19925;-71
2023/05/29 05:02:45;;;;;;;;;;;11.10;99.90;;;;;;6125027;23;19928;-71
2023/05/29 05:05:11;;;;;;;;;;;11.20;99.90;;;;;;6124415;23;20338;-71
2023/05/29 05:07:36;;;;;;;;;;;11.20;99.90;;;;;;6125792;23;19921;-71
2023/05/29 05:10:02;;;;;;;;;;;11.20;99.90;;;;;;6125223;23;19921;-72
2023/05/29 05:12:28;;;;;;;;;;;11.20;99.90;;;;;;6124379;23;19948;-71
2023/05/29 05:14:57;;;;;;;;;;;11.20;99.90;;;;;;6127465;23;19928;-71
2023/05/29 05:17:22;;;;;;;;;;;11.10;99.90;;;;;;6126883;23;19999;-71
2023/05/29 05:19:54;;;;;;;;;;;11.10;99.90;;;;;;6124340;23;20006;-72
2023/05/29 05:22:20;;;;;;;;;;;11.10;99.90;;;;;;6125281;23;19927;-71
2023/05/29 05:24:45;;;;;;;;;;;11.10;99.90;;;;;;6126080;23;19995;-71
2023/05/29 05:27:11;;;;;;;;;;;11.10;99.90;;;;;;6125000;23;19976;-71
2023/05/29 05:29:36;;;;;;;;;;;11.20;99.90;;;;;;6100701;23;19921;-71
2023/05/29 05:32:02;;;;;;;;;;;11.20;99.90;;;;;;6128078;23;19925;-71
2023/05/29 05:34:27;;;;;;;;;;;11.30;99.90;;;;;;6102952;23;19921;-71
2023/05/29 05:36:53;;;;;;;;;;;11.30;99.90;;;;;;6127346;23;19928;-70
2023/05/29 05:39:19;;;;;;;;;;;11.30;99.90;;;;;;6101944;23;19921;-70
2023/05/29 05:41:50;;;;;;;;;;;11.40;99.90;;;;;;6104267;23;19920;-71
2023/05/29 05:44:16;;;;;;;;;;;11.30;99.90;;;;;;6103611;23;20243;-70
2023/05/29 05:46:41;;;;;;;;;;;11.50;99.90;;;;;;6103226;23;19932;-71
2023/05/29 05:49:07;;;;;;;;;;;12.50;99.90;;;;;;6129227;23;20380;-71
2023/05/29 05:51:32;;;;;;;;;;;11.50;99.90;;;;;;6103099;23;19928;-70
2023/05/29 05:53:58;;;;;;;;;;;11.60;99.90;;;;;;6128918;23;19921;-71
2023/05/29 05:56:23;;;;;;;;;;;11.70;99.90;;;;;;6130480;23;20245;-71
2023/05/29 05:58:50;;;;;;;;;;;11.70;99.90;;;;;;6129745;23;20245;-72
2023/05/29 06:01:27;;;;;;;;;;;11.80;99.90;;;;;;6128706;23;19944;-71
2023/05/29 06:03:53;;;;;;;;;;;11.90;99.90;;;;;;6100725;23;20333;-70
2023/05/29 06:06:19;;;;;;;;;;;12.00;99.90;;;;;;6126355;23;20326;-70
2023/05/29 06:08:46;;;;;;;;;;;12.00;99.90;;;;;;6099556;23;19927;-71
2023/05/29 06:11:12;;;;;;;;;;;12.10;99.90;;;;;;6099009;23;19999;-70
2023/05/29 06:13:37;;;;;;;;;;;12.10;99.90;;;;;;6126679;23;20368;-70
2023/05/29 06:16:03;;;;;;;;;;;12.20;99.90;;;;;;6099468;23;20254;-70
2023/05/29 06:18:29;;;;;;;;;;;12.20;99.90;;;;;;6126430;23;19921;-71
2023/05/29 06:20:54;;;;;;;;;;;12.20;99.90;;;;;;6098860;23;19995;-71
2023/05/29 06:23:20;;;;;;;;;;;12.30;99.90;;;;;;6126817;23;19925;-71
2023/05/29 06:25:45;;;;;;;;;;;12.40;99.90;;;;;;6100475;23;19972;-70
2023/05/29 06:28:11;;;;;;;;;;;12.50;99.90;;;;;;6108511;23;19921;-71
2023/05/29 06:30:36;;;;;;;;;;;12.50;99.90;;;;;;6124261;23;19999;-71
2023/05/29 06:33:02;;;;;;;;;;;12.60;99.90;;;;;;6126064;23;20271;-71
2023/05/29 06:35:27;;;;;;;;;;;12.70;99.90;;;;;;6123458;23;19921;-70
2023/05/29 06:37:53;;;;;;;;;;;12.70;99.90;;;;;;6124075;23;19999;-71
2023/05/29 06:40:18;;;;;;;;;;;12.80;99.90;;;;;;6124159;23;20056;-71
2023/05/29 06:42:44;;;;;;;;;;;12.80;99.90;;;;;;6123380;23;19928;-71
2023/05/29 06:45:13;;;;;;;;;;;12.80;99.90;;;;;;6126081;23;20298;-70
2023/05/29 06:47:39;;;;;;;;;;;12.90;99.90;;;;;;6126472;23;19928;-71
2023/05/29 06:50:05;;;;;;;;;;;13.00;99.90;;;;;;6119926;23;19928;-70
2023/05/29 06:52:31;;;;;;;;;;;13.00;99.90;;;;;;6125867;23;19925;-71
2023/05/29 06:54:56;;;;;;;;;;;13.00;99.90;;;;;;6125194;23;20199;-71
2023/05/29 06:57:22;;;;;;;;;;;13.10;99.90;;;;;;6125166;23;19928;-71
2023/05/29 06:59:47;;;;;;;;;;;13.40;99.90;;;;;;6125874;23;19921;-71
2023/05/29 07:02:13;;;;;;;;;;;13.20;99.90;;;;;;6124307;23;19985;-70
2023/05/29 07:04:39;;;;;;;;;;;13.40;99.90;;;;;;6126024;23;19995;-71
2023/05/29 07:07:05;;;;;;;;;;;13.60;99.90;;;;;;6127192;23;19921;-71
2023/05/29 07:09:31;;;;;;;;;;;13.70;99.90;;;;;;6128044;23;19991;-70
2023/05/29 07:11:56;;;;;;;;;;;13.70;99.90;;;;;;6124992;23;19921;-71
2023/05/29 07:14:22;;;;;;;;;;;13.80;99.90;;;;;;6125647;23;20298;-71
2023/05/29 07:16:47;;;;;;;;;;;14.10;99.90;;;;;;6125894;23;19932;-71
2023/05/29 07:19:22;;;;;;;;;;;13.80;99.90;;;;;;6123251;23;19920;-72
2023/05/29 07:21:47;;;;;;;;;;;13.90;99.90;;;;;;6125038;23;19952;-72
2023/05/29 07:24:13;;;;;;;;;;;13.90;99.90;;;;;;6127031;23;19921;-73
2023/05/29 07:26:39;;;;;;;;;;;13.90;99.90;;;;;;6125191;23;20387;-72
2023/05/29 07:29:04;;;;;;;;;;;13.70;99.90;;;;;;6124167;23;20000;-72
2023/05/29 07:31:30;;;;;;;;;;;13.70;99.90;;;;;;6125282;23;19928;-70
2023/05/29 07:33:56;;;;;;;;;;;13.80;99.90;;;;;;6125085;23;19975;-71
2023/05/29 07:36:21;;;;;;;;;;;14.20;99.90;;;;;;6125691;23;19921;-72
2023/05/29 07:38:47;;;;;;;;;;;14.70;99.90;;;;;;6126810;23;20250;-70
2023/05/29 07:41:15;;;;;;;;;;;15.10;99.90;;;;;;6129643;23;20338;-70
2023/05/29 07:43:40;;;;;;;;;;;15.30;99.90;;;;;;6130736;23;20196;-76
2023/05/29 07:46:06;;;;;;;;;;;15.20;99.90;;;;;;6127698;23;19925;-71
2023/05/29 07:48:32;;;;;;;;;;;15.20;99.90;;;;;;6127520;23;19925;-74
2023/05/29 07:50:58;;;;;;;;;;;15.30;99.50;;;;;;6126684;23;19921;-74
2023/05/29 07:53:24;;;;;;;;;;;15.60;99.90;;;;;;6125903;23;19921;-75
2023/05/29 07:55:49;;;;;;;;;;;16.00;99.60;;;;;;6125302;23;19930;-71
2023/05/29 07:58:16;;;;;;;;;;;16.30;99.20;;;;;;6127548;23;19983;-71
2023/05/29 08:00:44;;;;;;;;;;;16.60;98.10;;;;;;6125799;23;19936;-69
2023/05/29 08:03:09;;;;;;;;;;;16.70;97.70;;;;;;6125083;23;20334;-70
2023/05/29 08:05:35;;;;;;;;;;;17.20;96.90;;;;;;6125654;23;19928;-71
2023/05/29 08:08:00;;;;;;;;;;;17.70;96.90;;;;;;6124142;23;19929;-75
2023/05/29 08:10:29;;;;;;;;;;;17.90;96.60;;;;;;6125666;23;19921;-72
2023/05/29 08:12:54;;;;;;;;;;;18.00;96.20;;;;;;6125535;23;19921;-70
2023/05/29 08:15:20;;;;;;;;;;;17.90;96.30;;;;;;6123806;23;20230;-73
2023/05/29 08:17:45;;;;;;;;;;;17.90;96.70;;;;;;6126179;23;19932;-72
2023/05/29 08:20:12;;;;;;;;;;;18.20;96.80;;;;;;6126602;23;19921;-72
2023/05/29 08:22:39;;;;;;;;;;;18.30;96.80;;;;;;6125675;23;20394;-71
2023/05/29 08:25:05;;;;;;;;;;;17.90;95.80;;;;;;6124877;23;19925;-71
2023/05/29 08:27:31;;;;;;;;;;;17.60;96.10;;;;;;6125707;23;19921;-71
2023/05/29 08:29:56;;;;;;;;;;;17.50;96.30;;;;;;6126436;23;19927;-72
2023/05/29 08:32:22;;;;;;;;;;;17.60;95.90;;;;;;6101063;23;19921;-71
2023/05/29 08:34:48;;;;;;;;;;;17.90;96.20;;;;;;6099918;23;19921;-72
2023/05/29 08:37:13;;;;;;;;;;;17.90;95.80;;;;;;6125812;23;19921;-69
2023/05/29 08:39:41;;;;;;;;;;;18.10;96.20;;;;;;6126501;23;19921;-69
2023/05/29 08:42:09;;;;;;;;;;;18.30;95.50;;;;;;6095107;23;19921;-71
2023/05/29 08:44:35;;;;;;;;;;;18.40;95.60;;;;;;6100101;23;19927;-74
2023/05/29 08:47:03;;;;;;;;;;;18.50;95.60;;;;;;6099951;23;19960;-78
2023/05/29 08:49:39;;;;;;;;;;;18.60;95.10;;;;;;6099253;23;20384;-75
2023/05/29 08:52:10;;;;;;;;;;;18.40;94.50;;;;;;6100020;23;19925;-73
2023/05/29 08:54:35;;;;;;;;;;;18.20;95.10;;;;;;6100409;23;19921;-73
2023/05/29 08:57:03;;;;;;;;;;;17.90;95.20;;;;;;6124467;23;20356;-71
2023/05/29 08:59:30;;;;;;;;;;;17.50;96.20;;;;;;6099679;23;19930;-72
2023/05/29 09:01:56;;;;;;;;;;;17.20;96.80;;;;;;6126108;23;19921;-72
2023/05/29 09:04:23;;;;;;;;;;;16.90;97.30;;;;;;6099397;23;20283;-74
2023/05/29 09:06:49;;;;;;;;;;;16.90;97.20;;;;;;6099801;23;19960;-73
2023/05/29 09:09:17;;;;;;;;;;;16.80;97.00;;;;;;6126626;23;19921;-72
2023/05/29 09:11:43;;;;;;;;;;;16.80;97.60;;;;;;6098677;23;19956;-73
2023/05/29 09:14:29;;;;;;;;;;;16.60;96.30;;;;;;6097705;23;19984;-73
2023/05/29 09:16:55;;;;;;;;;;;16.50;96.80;;;;;;6108618;23;19924;-75
2023/05/29 09:19:20;;;;;;;;;;;16.30;97.40;;;;;;6125067;23;20334;-70
2023/05/29 09:21:49;;;;;;;;;;;16.10;96.80;;;;;;6098561;23;20252;-73
2023/05/29 09:24:14;;;;;;;;;;;16.10;97.80;;;;;;6098364;23;19991;-73
2023/05/29 09:26:48;;;;;;;;;;;16.20;97.70;;;;;;6116594;23;20280;-73
2023/05/29 09:29:15;;;;;;;;;;;16.30;98.00;;;;;;6116874;23;19921;-75
2023/05/29 09:31:46;;;;;;;;;;;16.50;98.50;;;;;;6123359;23;19925;-73
2023/05/29 09:34:12;;;;;;;;;;;16.60;98.20;;;;;;6122857;23;19963;-73
2023/05/29 09:36:39;;;;;;;;;;;16.90;97.60;;;;;;6123770;23;19921;-72
2023/05/29 09:39:05;;;;;;;;;;;17.20;98.00;;;;;;6122314;23;19948;-75
2023/05/29 09:41:31;;;;;;;;;;;17.30;97.10;;;;;;6122992;23;19946;-73
2023/05/29 09:44:00;;;;;;;;;;;17.40;96.90;;;;;;6123260;23;20407;-74
2023/05/29 09:46:26;;;;;;;;;;;17.40;97.30;;;;;;6124482;23;20357;-75
2023/05/29 09:48:51;;;;;;;;;;;17.40;97.50;;;;;;6123763;23;19960;-74
2023/05/29 09:51:21;;;;;;;;;;;17.50;97.90;;;;;;6123856;23;19959;-75
2023/05/29 09:53:53;;;;;;;;;;;17.40;97.00;;;;;;6124800;23;19990;-79
2023/05/29 09:56:22;;;;;;;;;;;17.20;96.80;;;;;;6123716;23;19917;-76
2023/05/29 09:58:49;;;;;;;;;;;16.90;96.10;;;;;;6124572;23;20261;-75
2023/05/29 10:01:15;;;;;;;;;;;16.60;96.90;;;;;;6124869;23;19920;-78
2023/05/29 10:03:42;;;;;;;;;;;16.80;97.30;;;;;;6123668;23;20257;-75
2023/05/29 10:06:10;;;;;;;;;;;17.10;97.40;;;;;;6124415;23;19925;-74
2023/05/29 10:08:40;;;;;;;;;;;17.20;96.90;;;;;;6123440;23;19917;-75
2023/05/29 10:11:09;;;;;;;;;;;17.40;97.10;;;;;;6124917;23;19928;-74
2023/05/29 10:13:40;;;;;;;;;;;17.50;96.40;;;;;;6122661;23;20480;-74
2023/05/29 10:16:08;;;;;;;;;;;17.90;96.10;;;;;;6124317;23;19932;-74
2023/05/29 10:18:36;;;;;;;;;;;18.40;96.00;;;;;;6119193;23;19921;-74
2023/05/29 10:21:02;;;;;;;;;;;18.80;96.00;;;;;;6123775;23;20057;-73
2023/05/29 10:23:29;;;;;;;;;;;19.00;95.10;;;;;;6125542;23;19941;-75
2023/05/29 10:26:13;;;;;;;;;;;19.30;96.50;;;;;;6124815;23;19931;-74
2023/05/29 10:28:41;;;;;;;;;;;19.50;94.00;;;;;;6119745;23;19920;-73
2023/05/29 10:31:12;;;;;;;;;;;19.70;93.80;;;;;;6122740;23;19921;-76
2023/05/29 10:33:49;;;;;;;;;;;19.50;93.70;;;;;;6122890;23;19921;-77
2023/05/29 10:36:17;;;;;;;;;;;19.70;94.50;;;;;;6123403;23;20004;-71
2023/05/29 10:38:47;;;;;;;;;;;20.10;94.30;;;;;;6123336;23;19928;-73
2023/05/29 10:41:39;;;;;;;;;;;19.90;93.70;;;;;;6123539;23;19929;-74
2023/05/29 10:44:25;;;;;;;;;;;20.10;93.70;;;;;;6124037;23;19925;-73
2023/05/29 10:46:50;;;;;;;;;;;20.20;94.30;;;;;;6122712;23;20381;-72
2023/05/29 10:49:19;;;;;;;;;;;20.20;92.80;;;;;;6123136;23;20003;-71
2023/05/29 10:51:45;;;;;;;;;;;20.20;93.40;;;;;;6120224;23;19967;-72
2023/05/29 10:54:11;;;;;;;;;;;20.40;94.30;;;;;;6124277;23;19925;-73
2023/05/29 10:56:36;;;;;;;;;;;20.20;92.80;;;;;;6122273;23;19928;-72
2023/05/29 10:59:02;;;;;;;;;;;20.10;93.90;;;;;;6125039;23;19975;-77
2023/05/29 11:01:29;;;;;;;;;;;19.80;93.40;;;;;;6123107;23;20230;-77
2023/05/29 11:04:13;;;;;;;;;;;19.80;93.80;;;;;;6122525;23;19925;-76
2023/05/29 11:06:39;;;;;;;;;;;19.70;93.30;;;;;;6123602;23;20372;-77
2023/05/29 11:09:08;;;;;;;;;;;19.70;94.40;;;;;;6122901;23;19969;-73
2023/05/29 11:11:36;;;;;;;;;;;19.90;94.50;;;;;;6124181;23;20004;-77
2023/05/29 11:14:05;;;;;;;;;;;19.90;93.40;;;;;;6124872;23;20142;-76
2023/05/29 11:16:32;;;;;;;;;;;19.80;93.40;;;;;;6124670;23;20000;-76
2023/05/29 11:18:58;;;;;;;;;;;19.60;93.60;;;;;;6124193;23;19968;-75
2023/05/29 11:21:33;;;;;;;;;;;19.30;93.60;;;;;;6123591;23;19971;-76
2023/05/29 11:24:02;;;;;;;;;;;19.30;93.80;;;;;;6121609;23;19923;-76
2023/05/29 11:26:29;;;;;;;;;;;19.20;93.10;;;;;;6123463;23;20338;-76
2023/05/29 11:29:00;;;;;;;;;;;19.40;94.30;;;;;;6124728;23;19928;-75
2023/05/29 11:31:27;;;;;;;;;;;19.40;94.00;;;;;;6098499;23;19972;-75
2023/05/29 11:33:54;;;;;;;;;;;19.90;94.40;;;;;;6124904;23;19928;-75
2023/05/29 11:36:21;;;;;;;;;;;19.80;94.50;;;;;;6128191;23;19928;-79
2023/05/29 11:38:47;;;;;;;;;;;20.10;93.90;;;;;;6129134;23;19921;-74
2023/05/29 11:41:13;;;;;;;;;;;20.20;93.70;;;;;;6105653;23;20229;-75
2023/05/29 11:43:41;;;;;;;;;;;20.30;93.10;;;;;;6130655;23;19932;-75
2023/05/29 11:46:34;;;;;;;;;;;20.20;93.60;;;;;;6100689;23;19921;-75
2023/05/29 11:48:59;;;;;;;;;;;20.20;92.40;;;;;;6124093;23;19920;-75
2023/05/29 11:51:25;;;;;;;;;;;20.20;92.60;;;;;;6128686;23;19961;-75
2023/05/29 11:53:58;;;;;;;;;;;20.20;92.90;;;;;;6126794;23;19925;-75
2023/05/29 11:56:26;;;;;;;;;;;20.00;92.70;;;;;;6127795;23;19925;-75
2023/05/29 11:58:56;;;;;;;;;;;19.80;92.10;;;;;;6126322;23;20021;-76
2023/05/29 12:01:23;;;;;;;;;;;19.50;92.60;;;;;;6101738;23;19944;-79
2023/05/29 12:03:49;;;;;;;;;;;19.50;93.70;;;;;;6126755;23;20337;-74
2023/05/29 12:06:14;;;;;;;;;;;19.40;93.70;;;;;;6126513;23;20401;-75
2023/05/29 12:08:41;;;;;;;;;;;19.30;93.10;;;;;;6127260;23;19925;-75
2023/05/29 12:11:09;;;;;;;;;;;19.30;93.40;;;;;;6101086;23;19921;-75
2023/05/29 12:13:35;;;;;;;;;;;19.20;93.80;;;;;;6126738;23;19925;-74
2023/05/29 12:16:02;;;;;;;;;;;19.30;93.60;;;;;;6100497;23;19928;-73
2023/05/29 12:18:28;;;;;;;;;;;19.20;93.60;;;;;;6098805;23;19929;-74
2023/05/29 12:20:58;;;;;;;;;;;19.20;93.90;;;;;;6097920;23;20286;-74
2023/05/29 12:23:24;;;;;;;;;;;19.20;94.70;;;;;;6124994;23;19916;-73
2023/05/29 12:25:51;;;;;;;;;;;19.30;94.30;;;;;;6125025;23;19921;-74
2023/05/29 12:28:18;;;;;;;;;;;19.60;93.70;;;;;;6108644;23;19977;-73
2023/05/29 12:30:48;;;;;;;;;;;19.60;93.10;;;;;;6123225;23;19964;-73
2023/05/29 12:33:30;;;;;;;;;;;19.80;93.30;;;;;;6125010;23;19921;-74
2023/05/29 12:36:11;;;;;;;;;;;19.80;93.50;;;;;;6124109;23;20326;-73
2023/05/29 12:38:47;;;;;;;;;;;19.90;93.60;;;;;;6127359;23;20010;-73
2023/05/29 12:41:29;;;;;;;;;;;19.70;92.10;;;;;;6125659;23;19925;-73
2023/05/29 12:43:56;;;;;;;;;;;19.50;92.40;;;;;;6126673;23;19924;-74
2023/05/29 12:46:22;;;;;;;;;;;19.30;92.70;;;;;;6125515;23;19932;-73
2023/05/29 12:48:49;;;;;;;;;;;19.40;93.30;;;;;;6124034;23;19916;-73
2023/05/29 12:51:17;;;;;;;;;;;19.30;93.30;;;;;;6125162;23;19972;-73
2023/05/29 12:53:42;;;;;;;;;;;19.00;93.60;;;;;;6123513;23;19957;-73
2023/05/29 12:56:08;;;;;;;;;;;18.90;93.80;;;;;;6122325;23;19921;-73
2023/05/29 12:58:35;;;;;;;;;;;18.80;93.50;;;;;;6124763;23;20334;-77
2023/05/29 13:01:01;;;;;;;;;;;18.80;94.00;;;;;;6123193;23;20297;-73
2023/05/29 13:03:27;;;;;;;;;;;18.60;94.30;;;;;;6124462;23;19984;-76
2023/05/29 13:05:55;;;;;;;;;;;18.60;94.50;;;;;;6124620;23;19921;-79
2023/05/29 13:08:21;;;;;;;;;;;18.60;94.60;;;;;;6127069;23;19925;-80
2023/05/29 13:10:46;;;;;;;;;;;18.90;94.30;;;;;;6123880;23;19921;-74
2023/05/29 13:13:12;;;;;;;;;;;18.90;94.60;;;;;;6126501;23;19992;-77
2023/05/29 13:15:40;;;;;;;;;;;18.80;94.60;;;;;;6125343;23;19923;-73
2023/05/29 13:18:05;;;;;;;;;;;18.70;93.60;;;;;;6124084;23;19928;-79
2023/05/29 13:20:31;;;;;;;;;;;18.90;93.70;;;;;;6124507;23;19921;-73
2023/05/29 13:22:57;;;;;;;;;;;19.00;94.80;;;;;;6123614;23;19928;-73
2023/05/29 13:25:25;;;;;;;;;;;19.00;94.30;;;;;;6126605;23;20253;-74
2023/05/29 13:27:51;;;;;;;;;;;19.00;93.20;;;;;;6124514;23;19921;-74
2023/05/29 13:30:17;;;;;;;;;;;18.90;93.10;;;;;;6123899;23;19967;-74
2023/05/29 13:32:42;;;;;;;;;;;18.80;92.60;;;;;;6126399;23;19943;-74
2023/05/29 13:35:11;;;;;;;;;;;18.80;93.20;;;;;;6123934;23;19921;-74
2023/05/29 13:37:40;;;;;;;;;;;18.60;93.30;;;;;;6125824;23;19921;-74
2023/05/29 13:40:06;;;;;;;;;;;18.60;93.60;;;;;;6124489;23;20364;-75
2023/05/29 13:42:32;;;;;;;;;;;18.30;93.90;;;;;;6126589;23;19932;-75
2023/05/29 13:44:58;;;;;;;;;;;18.40;94.50;;;;;;6123784;23;19921;-75
2023/05/29 13:47:23;;;;;;;;;;;18.50;95.40;;;;;;6124904;23;19924;-75
2023/05/29 13:49:49;;;;;;;;;;;18.60;94.10;;;;;;6125530;23;20301;-75
2023/05/29 13:52:16;;;;;;;;;;;18.60;94.30;;;;;;6125828;23;19944;-74
2023/05/29 13:54:41;;;;;;;;;;;18.90;93.80;;;;;;6126237;23;19929;-74
2023/05/29 13:57:07;;;;;;;;;;;18.70;93.40;;;;;;6124267;23;20004;-73
2023/05/29 13:59:33;;;;;;;;;;;18.70;93.70;;;;;;6123991;23;19991;-73
2023/05/29 14:01:59;;;;;;;;;;;18.70;94.20;;;;;;6124262;23;20416;-73
2023/05/29 14:04:25;;;;;;;;;;;18.90;93.80;;;;;;6124412;23;19925;-74
2023/05/29 14:06:51;;;;;;;;;;;18.70;93.30;;;;;;6125324;23;19921;-75
2023/05/29 14:09:16;;;;;;;;;;;18.70;93.40;;;;;;6124501;23;19921;-75
2023/05/29 14:11:42;;;;;;;;;;;18.60;93.40;;;;;;6126463;23;19921;-74
2023/05/29 14:14:10;;;;;;;;;;;18.60;93.80;;;;;;6122880;23;19960;-74
2023/05/29 14:16:36;;;;;;;;;;;18.60;92.10;;;;;;6126447;23;19921;-75
2023/05/29 14:19:01;;;;;;;;;;;18.60;93.10;;;;;;6123938;23;19928;-74